KAL2028 RCTP-RKSI
Flight info
| Callsign | KAL2028 |
|---|---|
| Flight time | 1h 52m |
| Altitude | 35000 |
| Route | PIANO L3 SALMI B576 CJU Y722 OLMEN |
| Aircraft | A21N/M-SDE2E3FGHIJ1RWXY/LB1 |
Departure
| Time | 2026-05-04 05:34 |
|---|---|
| Airport | Taiwan Taoyuan International Airport (RCTP) |
Arrival
| Time | 2026-05-04 07:27 |
|---|---|
| Airport | Incheon International Airport (RKSI) |
| Time | Latitude | Longitude | Altitude | Speed | Heading |
|---|---|---|---|---|---|
| 2026-05-04 05:06 | 25.08247 | 121.23543 | 105 ft | 0 kts | 139° |
| 2026-05-04 05:16 | 25.08249 | 121.23541 | 106 ft | 2 kts | 139° |
| 2026-05-04 05:16 | 25.08268 | 121.23523 | 105 ft | 4 kts | 139° |
| 2026-05-04 05:17 | 25.08289 | 121.23503 | 104 ft | 4 kts | 139° |
| 2026-05-04 05:17 | 25.08309 | 121.23484 | 106 ft | 4 kts | 139° |
| 2026-05-04 05:17 | 25.08326 | 121.23467 | 104 ft | 4 kts | 142° |
| 2026-05-04 05:17 | 25.08348 | 121.23457 | 104 ft | 4 kts | 185° |
| 2026-05-04 05:18 | 25.08371 | 121.23467 | 105 ft | 4 kts | 221° |
| 2026-05-04 05:18 | 25.08380 | 121.23476 | 104 ft | 0 kts | 229° |
| 2026-05-04 05:24 | 25.08371 | 121.23464 | 105 ft | 3 kts | 229° |
| 2026-05-04 05:24 | 25.08352 | 121.23441 | 106 ft | 5 kts | 229° |
| 2026-05-04 05:24 | 25.08325 | 121.23406 | 105 ft | 7 kts | 229° |
| 2026-05-04 05:25 | 25.08289 | 121.23360 | 106 ft | 9 kts | 229° |
| 2026-05-04 05:25 | 25.08243 | 121.23301 | 106 ft | 11 kts | 230° |
| 2026-05-04 05:25 | 25.08190 | 121.23232 | 106 ft | 13 kts | 229° |
| 2026-05-04 05:25 | 25.08131 | 121.23157 | 106 ft | 15 kts | 229° |
| 2026-05-04 05:26 | 25.08063 | 121.23070 | 106 ft | 16 kts | 230° |
| 2026-05-04 05:26 | 25.07985 | 121.22971 | 106 ft | 18 kts | 230° |
| 2026-05-04 05:26 | 25.07915 | 121.22881 | 106 ft | 14 kts | 230° |
| 2026-05-04 05:26 | 25.07852 | 121.22800 | 106 ft | 11 kts | 229° |
| 2026-05-04 05:27 | 25.07799 | 121.22732 | 106 ft | 13 kts | 230° |
| 2026-05-04 05:28 | 25.07282 | 121.22145 | 106 ft | 14 kts | 139° |
| 2026-05-04 05:29 | 25.07202 | 121.22220 | 106 ft | 16 kts | 139° |
| 2026-05-04 05:29 | 25.07114 | 121.22303 | 106 ft | 17 kts | 139° |
| 2026-05-04 05:29 | 25.07064 | 121.22350 | 106 ft | 7 kts | 139° |
| 2026-05-04 05:29 | 25.07020 | 121.22392 | 105 ft | 9 kts | 139° |
| 2026-05-04 05:31 | 25.06569 | 121.22499 | 106 ft | 12 kts | 229° |
| 2026-05-04 05:31 | 25.06510 | 121.22424 | 106 ft | 14 kts | 229° |
| 2026-05-04 05:32 | 25.06442 | 121.22338 | 106 ft | 16 kts | 229° |
| 2026-05-04 05:32 | 25.06369 | 121.22263 | 106 ft | 12 kts | 197° |
| 2026-05-04 05:32 | 25.06291 | 121.22306 | 105 ft | 14 kts | 137° |
| 2026-05-04 05:33 | 25.06168 | 121.22426 | 101 ft | 10 kts | 121° |
| 2026-05-04 05:33 | 25.06193 | 121.22495 | 101 ft | 0 kts | 48° |
| 2026-05-04 05:33 | 25.06195 | 121.22496 | 101 ft | 6 kts | 48° |
| 2026-05-04 05:33 | 25.06403 | 121.22759 | 99 ft | 84 kts | 49° |
| 2026-05-04 05:34 | 25.06935 | 121.23434 | 102 ft | 147 kts | 47° |
| 2026-05-04 05:34 | 25.07676 | 121.24277 | 677 ft | 156 kts | 43° |
| 2026-05-04 05:34 | 25.08448 | 121.25165 | 1477 ft | 163 kts | 48° |
| 2026-05-04 05:34 | 25.09168 | 121.26112 | 2446 ft | 159 kts | 61° |
| 2026-05-04 05:35 | 25.09782 | 121.27099 | 3162 ft | 159 kts | 56° |
| 2026-05-04 05:35 | 25.10520 | 121.28103 | 3605 ft | 178 kts | 54° |
| 2026-05-04 05:35 | 25.11367 | 121.29209 | 4067 ft | 199 kts | 52° |
| 2026-05-04 05:35 | 25.12464 | 121.30370 | 4356 ft | 232 kts | 35° |
| 2026-05-04 05:36 | 25.14054 | 121.30924 | 4740 ft | 261 kts | 5° |
| 2026-05-04 05:36 | 25.15871 | 121.30444 | 5310 ft | 278 kts | 330° |
| 2026-05-04 05:36 | 25.17404 | 121.29143 | 6132 ft | 279 kts | 321° |
| 2026-05-04 05:36 | 25.19208 | 121.28328 | 7001 ft | 289 kts | 349° |
| 2026-05-04 05:37 | 25.21242 | 121.28344 | 7845 ft | 295 kts | 359° |
| 2026-05-04 05:37 | 25.23310 | 121.28456 | 8652 ft | 301 kts | 356° |
| 2026-05-04 05:37 | 25.25392 | 121.28502 | 9504 ft | 306 kts | 354° |
| 2026-05-04 05:38 | 25.29854 | 121.28450 | 10569 ft | 333 kts | 352° |
| 2026-05-04 05:38 | 25.32167 | 121.28380 | 10847 ft | 350 kts | 352° |
| 2026-05-04 05:38 | 25.34664 | 121.28300 | 11183 ft | 364 kts | 353° |
| 2026-05-04 05:38 | 25.37235 | 121.28513 | 11709 ft | 379 kts | 7° |
| 2026-05-04 05:39 | 25.39719 | 121.29596 | 12344 ft | 392 kts | 26° |
| 2026-05-04 05:39 | 25.43649 | 121.33936 | 13562 ft | 409 kts | 49° |
| 2026-05-04 05:39 | 25.45446 | 121.36427 | 14129 ft | 414 kts | 48° |
| 2026-05-04 05:40 | 25.49168 | 121.41338 | 15185 ft | 422 kts | 46° |
| 2026-05-04 05:40 | 25.51096 | 121.43815 | 15718 ft | 425 kts | 46° |
| 2026-05-04 05:40 | 25.53040 | 121.46303 | 16231 ft | 429 kts | 46° |
| 2026-05-04 05:41 | 25.55005 | 121.48817 | 16747 ft | 434 kts | 45° |
| 2026-05-04 05:41 | 25.56990 | 121.51359 | 17224 ft | 439 kts | 45° |
| 2026-05-04 05:41 | 25.58987 | 121.53938 | 17711 ft | 444 kts | 46° |
| 2026-05-04 05:41 | 25.60990 | 121.56548 | 18222 ft | 447 kts | 46° |
| 2026-05-04 05:42 | 25.63017 | 121.59168 | 18665 ft | 450 kts | 45° |
| 2026-05-04 05:42 | 25.65070 | 121.61807 | 19103 ft | 453 kts | 45° |
| 2026-05-04 05:42 | 25.67133 | 121.64459 | 19537 ft | 456 kts | 45° |
| 2026-05-04 05:42 | 25.68511 | 121.66224 | 19824 ft | 457 kts | 45° |
| 2026-05-04 05:43 | 25.71313 | 121.69816 | 20395 ft | 461 kts | 45° |
| 2026-05-04 05:43 | 25.73421 | 121.72509 | 20829 ft | 464 kts | 45° |
| 2026-05-04 05:43 | 25.75548 | 121.75219 | 21202 ft | 468 kts | 45° |
| 2026-05-04 05:45 | 25.92900 | 121.91655 | 23901 ft | 477 kts | 30° |
| 2026-05-04 05:45 | 25.95593 | 121.93833 | 24222 ft | 480 kts | 30° |
| 2026-05-04 05:47 | 26.15027 | 122.09237 | 26242 ft | 499 kts | 30° |
| 2026-05-04 05:47 | 26.17871 | 122.11463 | 26555 ft | 501 kts | 30° |
| 2026-05-04 05:47 | 26.20730 | 122.13702 | 26818 ft | 504 kts | 30° |
| 2026-05-04 05:48 | 26.23603 | 122.15955 | 27085 ft | 507 kts | 30° |
| 2026-05-04 05:48 | 26.26492 | 122.18226 | 27345 ft | 509 kts | 30° |
| 2026-05-04 05:48 | 26.29388 | 122.20509 | 27605 ft | 512 kts | 30° |
| 2026-05-04 05:48 | 26.32295 | 122.22811 | 27867 ft | 514 kts | 30° |
| 2026-05-04 05:49 | 26.35212 | 122.25132 | 28120 ft | 516 kts | 30° |
| 2026-05-04 05:49 | 26.38157 | 122.27438 | 28384 ft | 518 kts | 29° |
| 2026-05-04 05:49 | 26.41121 | 122.29744 | 28655 ft | 521 kts | 29° |
| 2026-05-04 05:49 | 26.44099 | 122.32076 | 28882 ft | 524 kts | 30° |
| 2026-05-04 05:51 | 26.65026 | 122.48596 | 30773 ft | 528 kts | 29° |
| 2026-05-04 05:51 | 26.68024 | 122.50973 | 31009 ft | 529 kts | 30° |
| 2026-05-04 05:52 | 26.71025 | 122.53351 | 31249 ft | 528 kts | 30° |
| 2026-05-04 05:52 | 26.74025 | 122.55728 | 31492 ft | 528 kts | 30° |
| 2026-05-04 05:52 | 26.77022 | 122.58107 | 31727 ft | 528 kts | 30° |
| 2026-05-04 05:52 | 26.80022 | 122.60487 | 31954 ft | 528 kts | 30° |
| 2026-05-04 05:53 | 26.83022 | 122.62871 | 32176 ft | 529 kts | 30° |
| 2026-05-04 05:54 | 27.03058 | 122.78829 | 33536 ft | 531 kts | 30° |
| 2026-05-04 05:55 | 27.06063 | 122.81228 | 33732 ft | 531 kts | 30° |
| 2026-05-04 05:55 | 27.10047 | 122.84418 | 33979 ft | 531 kts | 30° |
| 2026-05-04 05:55 | 27.13055 | 122.86826 | 34158 ft | 531 kts | 30° |
| 2026-05-04 05:55 | 27.16062 | 122.89234 | 34299 ft | 531 kts | 30° |
| 2026-05-04 05:56 | 27.19064 | 122.91640 | 34492 ft | 530 kts | 30° |
| 2026-05-04 05:56 | 27.22043 | 122.94074 | 34664 ft | 531 kts | 33° |
| 2026-05-04 05:56 | 27.23979 | 122.95857 | 34803 ft | 533 kts | 35° |
| 2026-05-04 05:56 | 27.26807 | 122.98554 | 34903 ft | 534 kts | 36° |
| 2026-05-04 05:57 | 27.29631 | 123.01265 | 35007 ft | 535 kts | 36° |
| 2026-05-04 05:57 | 27.32423 | 123.03942 | 35136 ft | 535 kts | 36° |
| 2026-05-04 05:57 | 27.38055 | 123.09344 | 35188 ft | 530 kts | 35° |
| 2026-05-04 05:58 | 27.43663 | 123.14727 | 35192 ft | 530 kts | 35° |
| 2026-05-04 05:58 | 27.49287 | 123.20123 | 35164 ft | 532 kts | 36° |
| 2026-05-04 05:59 | 27.54906 | 123.25550 | 35164 ft | 532 kts | 36° |
| 2026-05-04 05:59 | 27.60498 | 123.31019 | 35165 ft | 532 kts | 36° |
| 2026-05-04 06:00 | 27.66117 | 123.36448 | 35200 ft | 532 kts | 35° |
| 2026-05-04 06:00 | 27.71750 | 123.41889 | 35176 ft | 533 kts | 35° |
| 2026-05-04 06:01 | 27.77390 | 123.47337 | 35170 ft | 533 kts | 35° |
| 2026-05-04 06:03 | 27.99919 | 123.69175 | 35167 ft | 534 kts | 35° |
| 2026-05-04 06:05 | 28.25285 | 123.93936 | 35202 ft | 536 kts | 34° |
| 2026-05-04 06:06 | 28.30917 | 123.99536 | 35171 ft | 543 kts | 41° |
| 2026-05-04 06:06 | 28.35671 | 124.06266 | 35177 ft | 548 kts | 51° |
| 2026-05-04 06:07 | 28.40181 | 124.13242 | 35171 ft | 548 kts | 51° |
| 2026-05-04 06:07 | 28.44714 | 124.20199 | 35176 ft | 548 kts | 50° |
| 2026-05-04 06:08 | 28.49221 | 124.27190 | 35165 ft | 548 kts | 51° |
| 2026-05-04 06:08 | 28.53766 | 124.34143 | 35171 ft | 548 kts | 50° |
| 2026-05-04 06:09 | 28.58326 | 124.41077 | 35204 ft | 548 kts | 50° |
| 2026-05-04 06:11 | 28.76872 | 124.68660 | 35187 ft | 541 kts | 34° |
| 2026-05-04 06:11 | 28.79879 | 124.71086 | 35172 ft | 529 kts | 21° |
| 2026-05-04 06:13 | 29.03590 | 124.80800 | 35167 ft | 519 kts | 10° |
| 2026-05-04 06:14 | 29.27462 | 124.90366 | 35184 ft | 519 kts | 9° |
| 2026-05-04 06:15 | 29.34279 | 124.93099 | 35169 ft | 519 kts | 9° |
| 2026-05-04 06:15 | 29.41082 | 124.95830 | 35202 ft | 516 kts | 9° |
| 2026-05-04 06:16 | 29.47849 | 124.98553 | 35176 ft | 515 kts | 9° |
| 2026-05-04 06:16 | 29.54633 | 125.01285 | 35155 ft | 519 kts | 9° |
| 2026-05-04 06:17 | 29.61410 | 125.04018 | 35184 ft | 519 kts | 9° |
| 2026-05-04 06:17 | 29.68213 | 125.06769 | 35169 ft | 518 kts | 9° |
| 2026-05-04 06:18 | 29.75036 | 125.09532 | 35169 ft | 518 kts | 9° |
| 2026-05-04 06:20 | 30.01928 | 125.20461 | 35192 ft | 513 kts | 9° |
| 2026-05-04 06:21 | 30.18779 | 125.27358 | 35157 ft | 515 kts | 9° |
| 2026-05-04 06:22 | 30.25533 | 125.30132 | 35181 ft | 514 kts | 9° |
| 2026-05-04 06:25 | 30.72524 | 125.49549 | 35158 ft | 512 kts | 10° |
| 2026-05-04 06:26 | 30.79250 | 125.52328 | 35145 ft | 514 kts | 9° |
| 2026-05-04 06:26 | 30.85987 | 125.55145 | 35162 ft | 514 kts | 9° |
| 2026-05-04 06:27 | 31.02829 | 125.62163 | 35153 ft | 514 kts | 10° |
| 2026-05-04 06:28 | 31.09556 | 125.64985 | 35154 ft | 514 kts | 10° |
| 2026-05-04 06:28 | 31.16283 | 125.67806 | 35151 ft | 513 kts | 10° |
| 2026-05-04 06:29 | 31.23008 | 125.70615 | 35198 ft | 513 kts | 10° |
| 2026-05-04 06:29 | 31.29678 | 125.73442 | 35167 ft | 509 kts | 10° |
| 2026-05-04 06:30 | 31.36300 | 125.76243 | 35128 ft | 511 kts | 9° |
| 2026-05-04 06:30 | 31.43031 | 125.79017 | 35187 ft | 514 kts | 9° |
| 2026-05-04 06:31 | 31.49719 | 125.81830 | 35161 ft | 509 kts | 10° |
| 2026-05-04 06:31 | 31.56370 | 125.84647 | 35151 ft | 508 kts | 10° |
| 2026-05-04 06:33 | 31.82799 | 125.95769 | 35186 ft | 503 kts | 11° |
| 2026-05-04 06:34 | 31.89362 | 125.98549 | 35152 ft | 501 kts | 11° |
| 2026-05-04 06:34 | 31.95887 | 126.01306 | 35148 ft | 500 kts | 11° |
| 2026-05-04 06:36 | 32.22062 | 126.12400 | 35173 ft | 499 kts | 11° |
| 2026-05-04 06:37 | 32.28633 | 126.15195 | 35148 ft | 503 kts | 11° |
| 2026-05-04 06:37 | 32.35219 | 126.17998 | 35144 ft | 503 kts | 11° |
| 2026-05-04 06:38 | 32.41805 | 126.20821 | 35167 ft | 504 kts | 11° |
| 2026-05-04 06:40 | 32.68285 | 126.32208 | 35144 ft | 510 kts | 11° |
| 2026-05-04 06:40 | 32.74953 | 126.35105 | 35136 ft | 510 kts | 11° |
| 2026-05-04 06:41 | 32.80509 | 126.37484 | 35159 ft | 510 kts | 11° |
| 2026-05-04 06:41 | 32.88313 | 126.40807 | 35138 ft | 511 kts | 10° |
| 2026-05-04 06:42 | 32.93885 | 126.43189 | 35138 ft | 511 kts | 11° |
| 2026-05-04 06:44 | 33.21745 | 126.55181 | 35151 ft | 512 kts | 11° |
| 2026-05-04 06:44 | 33.28446 | 126.58074 | 35135 ft | 512 kts | 11° |
| 2026-05-04 06:45 | 33.35101 | 126.60953 | 35133 ft | 512 kts | 11° |
| 2026-05-04 06:45 | 33.41781 | 126.63852 | 35144 ft | 507 kts | 10° |
| 2026-05-04 06:46 | 33.47280 | 126.66248 | 35126 ft | 508 kts | 10° |
| 2026-05-04 06:46 | 33.55021 | 126.69557 | 35173 ft | 501 kts | 5° |
| 2026-05-04 06:48 | 33.77259 | 126.72089 | 35148 ft | 481 kts | 353° |
| 2026-05-04 06:48 | 33.80597 | 126.72442 | 35137 ft | 482 kts | 353° |
| 2026-05-04 06:50 | 34.07310 | 126.75248 | 35101 ft | 482 kts | 352° |
| 2026-05-04 06:51 | 34.13993 | 126.75945 | 35097 ft | 482 kts | 353° |
| 2026-05-04 06:51 | 34.20688 | 126.76647 | 35106 ft | 483 kts | 352° |
| 2026-05-04 06:52 | 34.27388 | 126.77354 | 35095 ft | 484 kts | 352° |
| 2026-05-04 06:52 | 34.34086 | 126.78070 | 35092 ft | 482 kts | 352° |
| 2026-05-04 06:53 | 34.40760 | 126.78807 | 35105 ft | 481 kts | 352° |
| 2026-05-04 06:53 | 34.47405 | 126.79515 | 35090 ft | 478 kts | 352° |
| 2026-05-04 06:54 | 34.54027 | 126.80202 | 35090 ft | 478 kts | 352° |
| 2026-05-04 06:54 | 34.60639 | 126.80920 | 35106 ft | 476 kts | 352° |
| 2026-05-04 06:55 | 34.67234 | 126.81602 | 35087 ft | 475 kts | 352° |
| 2026-05-04 06:55 | 34.73774 | 126.82303 | 35093 ft | 473 kts | 352° |
| 2026-05-04 06:57 | 35.00186 | 126.85182 | 35083 ft | 481 kts | 352° |
| 2026-05-04 06:58 | 35.06862 | 126.85913 | 35084 ft | 482 kts | 352° |
| 2026-05-04 06:58 | 35.13493 | 126.86624 | 35081 ft | 481 kts | 352° |
| 2026-05-04 06:59 | 35.20197 | 126.87377 | 35099 ft | 481 kts | 352° |
| 2026-05-04 06:59 | 35.26855 | 126.88085 | 35078 ft | 479 kts | 352° |
| 2026-05-04 07:01 | 35.53212 | 126.90946 | 35077 ft | 473 kts | 351° |
| 2026-05-04 07:02 | 35.59772 | 126.91647 | 35094 ft | 472 kts | 353° |
| 2026-05-04 07:02 | 35.66310 | 126.92367 | 35074 ft | 471 kts | 353° |
| 2026-05-04 07:03 | 35.72814 | 126.93093 | 35076 ft | 469 kts | 353° |
| 2026-05-04 07:03 | 35.79286 | 126.93808 | 34819 ft | 464 kts | 354° |
| 2026-05-04 07:04 | 35.82527 | 126.94160 | 34512 ft | 470 kts | 354° |
| 2026-05-04 07:04 | 35.85791 | 126.94520 | 34257 ft | 472 kts | 354° |
| 2026-05-04 07:04 | 35.89069 | 126.94882 | 34024 ft | 473 kts | 354° |
| 2026-05-04 07:04 | 35.92352 | 126.95246 | 33753 ft | 473 kts | 354° |
| 2026-05-04 07:05 | 35.95616 | 126.95604 | 33299 ft | 469 kts | 356° |
| 2026-05-04 07:05 | 35.98860 | 126.95964 | 32556 ft | 467 kts | 356° |
| 2026-05-04 07:05 | 36.02095 | 126.96321 | 31792 ft | 467 kts | 356° |
| 2026-05-04 07:05 | 36.05309 | 126.96675 | 31090 ft | 464 kts | 357° |
| 2026-05-04 07:06 | 36.11695 | 126.97376 | 29678 ft | 455 kts | 357° |
| 2026-05-04 07:06 | 36.14825 | 126.97724 | 28975 ft | 448 kts | 358° |
| 2026-05-04 07:06 | 36.17907 | 126.98068 | 28261 ft | 441 kts | 358° |
| 2026-05-04 07:07 | 36.20944 | 126.98406 | 27583 ft | 435 kts | 358° |
| 2026-05-04 07:08 | 36.40985 | 127.00312 | 23048 ft | 389 kts | 352° |
| 2026-05-04 07:09 | 36.43668 | 127.00213 | 22386 ft | 382 kts | 352° |
| 2026-05-04 07:09 | 36.46304 | 127.00109 | 21766 ft | 377 kts | 352° |
| 2026-05-04 07:09 | 36.48901 | 127.00009 | 21143 ft | 370 kts | 352° |
| 2026-05-04 07:09 | 36.51458 | 126.99913 | 20598 ft | 365 kts | 353° |
| 2026-05-04 07:10 | 36.53978 | 126.99819 | 20050 ft | 360 kts | 353° |
| 2026-05-04 07:10 | 36.56456 | 126.99727 | 19512 ft | 355 kts | 353° |
| 2026-05-04 07:12 | 36.73209 | 126.98992 | 16072 ft | 338 kts | 347° |
| 2026-05-04 07:12 | 36.75431 | 126.98104 | 15442 ft | 335 kts | 334° |
| 2026-05-04 07:12 | 36.77524 | 126.96809 | 14615 ft | 339 kts | 332° |
| 2026-05-04 07:12 | 36.79619 | 126.95468 | 13965 ft | 337 kts | 333° |
| 2026-05-04 07:13 | 36.81700 | 126.94157 | 13345 ft | 334 kts | 333° |
| 2026-05-04 07:13 | 36.83807 | 126.92835 | 12773 ft | 328 kts | 333° |
| 2026-05-04 07:13 | 36.85786 | 126.91591 | 12252 ft | 323 kts | 333° |
| 2026-05-04 07:14 | 36.93483 | 126.86757 | 10591 ft | 291 kts | 333° |
| 2026-05-04 07:14 | 36.95253 | 126.85653 | 10415 ft | 277 kts | 333° |
| 2026-05-04 07:15 | 36.96939 | 126.84597 | 10220 ft | 266 kts | 333° |
| 2026-05-04 07:15 | 36.98580 | 126.83573 | 9861 ft | 262 kts | 333° |
| 2026-05-04 07:15 | 37.00203 | 126.82561 | 9417 ft | 259 kts | 333° |
| 2026-05-04 07:15 | 37.01825 | 126.81554 | 8993 ft | 261 kts | 333° |
| 2026-05-04 07:16 | 37.03452 | 126.80543 | 8612 ft | 261 kts | 333° |
| 2026-05-04 07:16 | 37.05067 | 126.79533 | 8248 ft | 258 kts | 333° |
| 2026-05-04 07:16 | 37.06657 | 126.78535 | 7887 ft | 254 kts | 333° |
| 2026-05-04 07:16 | 37.08238 | 126.77543 | 7548 ft | 254 kts | 333° |
| 2026-05-04 07:17 | 37.09816 | 126.76550 | 7204 ft | 254 kts | 333° |
| 2026-05-04 07:17 | 37.11377 | 126.75564 | 6968 ft | 247 kts | 333° |
| 2026-05-04 07:17 | 37.12860 | 126.74634 | 6923 ft | 230 kts | 333° |
| 2026-05-04 07:17 | 37.14233 | 126.73767 | 6940 ft | 214 kts | 333° |
| 2026-05-04 07:18 | 37.15540 | 126.72876 | 6957 ft | 213 kts | 326° |
| 2026-05-04 07:18 | 37.16573 | 126.71547 | 6861 ft | 216 kts | 305° |
| 2026-05-04 07:18 | 37.17270 | 126.69895 | 6576 ft | 216 kts | 299° |
| 2026-05-04 07:18 | 37.17926 | 126.68214 | 6295 ft | 211 kts | 300° |
| 2026-05-04 07:19 | 37.18605 | 126.66638 | 6092 ft | 199 kts | 308° |
| 2026-05-04 07:19 | 37.19544 | 126.65459 | 5849 ft | 188 kts | 324° |
| 2026-05-04 07:19 | 37.20620 | 126.64555 | 5552 ft | 187 kts | 330° |
| 2026-05-04 07:19 | 37.21694 | 126.63701 | 5266 ft | 186 kts | 326° |
| 2026-05-04 07:20 | 37.22762 | 126.62770 | 4985 ft | 185 kts | 324° |
| 2026-05-04 07:20 | 37.23818 | 126.61838 | 4718 ft | 185 kts | 324° |
| 2026-05-04 07:20 | 37.24869 | 126.60906 | 4481 ft | 185 kts | 323° |
| 2026-05-04 07:20 | 37.25919 | 126.59975 | 4300 ft | 185 kts | 323° |
| 2026-05-04 07:22 | 37.32329 | 126.54285 | 2883 ft | 138 kts | 323° |
| 2026-05-04 07:22 | 37.33108 | 126.53592 | 2705 ft | 136 kts | 321° |
| 2026-05-04 07:23 | 37.33883 | 126.52903 | 2551 ft | 137 kts | 322° |
| 2026-05-04 07:23 | 37.34662 | 126.52211 | 2369 ft | 137 kts | 321° |
| 2026-05-04 07:23 | 37.35440 | 126.51519 | 2175 ft | 136 kts | 320° |
| 2026-05-04 07:23 | 37.36198 | 126.50845 | 1986 ft | 134 kts | 320° |
| 2026-05-04 07:24 | 37.36970 | 126.50158 | 1809 ft | 135 kts | 320° |
| 2026-05-04 07:24 | 37.37736 | 126.49477 | 1618 ft | 135 kts | 319° |
| 2026-05-04 07:24 | 37.38500 | 126.48797 | 1428 ft | 134 kts | 319° |
| 2026-05-04 07:24 | 37.39250 | 126.48129 | 1247 ft | 131 kts | 319° |
| 2026-05-04 07:25 | 37.39958 | 126.47500 | 1084 ft | 123 kts | 319° |
| 2026-05-04 07:26 | 37.44916 | 126.43090 | 37 ft | 97 kts | 324° |
| 2026-05-04 07:27 | 37.45304 | 126.42745 | 37 ft | 50 kts | 326° |
| 2026-05-04 07:27 | 37.45572 | 126.42512 | 38 ft | 32 kts | 331° |
| 2026-05-04 07:27 | 37.45732 | 126.42446 | 38 ft | 20 kts | 350° |
| 2026-05-04 07:27 | 37.45843 | 126.42432 | 38 ft | 17 kts | 356° |
| 2026-05-04 07:28 | 37.45966 | 126.42414 | 38 ft | 18 kts | 348° |
| 2026-05-04 07:28 | 37.46036 | 126.42366 | 38 ft | 6 kts | 4° |
| 2026-05-04 07:28 | 37.46076 | 126.42401 | 38 ft | 8 kts | 55° |
| 2026-05-04 07:28 | 37.46085 | 126.42417 | 38 ft | 0 kts | 55° |
| 2026-05-04 07:29 | 37.46091 | 126.42428 | 38 ft | 5 kts | 54° |
| 2026-05-04 07:29 | 37.46118 | 126.42472 | 38 ft | 8 kts | 54° |
| 2026-05-04 07:30 | 37.46152 | 126.42536 | 38 ft | 10 kts | 57° |
| 2026-05-04 07:30 | 37.46196 | 126.42618 | 38 ft | 13 kts | 56° |
| 2026-05-04 07:30 | 37.46243 | 126.42719 | 36 ft | 15 kts | 93° |
| 2026-05-04 07:30 | 37.46171 | 126.42812 | 38 ft | 14 kts | 145° |
| 2026-05-04 07:31 | 37.46087 | 126.42887 | 35 ft | 16 kts | 144° |
| 2026-05-04 07:31 | 37.45992 | 126.42974 | 37 ft | 18 kts | 148° |
| 2026-05-04 07:33 | 37.46028 | 126.43574 | 38 ft | 11 kts | 56° |
| 2026-05-04 07:33 | 37.46072 | 126.43654 | 38 ft | 12 kts | 55° |
| 2026-05-04 07:33 | 37.46130 | 126.43733 | 37 ft | 13 kts | 19° |
| 2026-05-04 07:33 | 37.46212 | 126.43681 | 38 ft | 14 kts | 326° |
| 2026-05-04 07:34 | 37.46295 | 126.43607 | 37 ft | 15 kts | 324° |
| 2026-05-04 07:34 | 37.46354 | 126.43554 | 36 ft | 16 kts | 325° |
| 2026-05-04 07:34 | 37.46453 | 126.43461 | 36 ft | 9 kts | 294° |
| 2026-05-04 07:34 | 37.46443 | 126.43410 | 36 ft | 10 kts | 257° |
| 2026-05-04 07:35 | 37.46434 | 126.43353 | 38 ft | 6 kts | 261° |
| 2026-05-04 07:35 | 37.46433 | 126.43345 | 37 ft | 0 kts | 260° |